createdAt,value
2022-11-28T00:00:46.236Z,1.47
2022-11-28T00:07:29.079Z,1.54
2022-11-28T00:14:13.452Z,1.48
2022-11-28T00:20:56.390Z,1.33
2022-11-28T00:27:39.844Z,1.02
2022-11-28T00:34:23.191Z,0.96
2022-11-28T00:41:06.705Z,1.02
2022-11-28T00:47:49.789Z,1.03
2022-11-28T00:54:32.798Z,1.13
2022-11-28T01:01:15.654Z,1.13
2022-11-28T01:07:58.160Z,1.14
2022-11-28T01:14:41.606Z,1.18
2022-11-28T01:21:13.476Z,1.33
2022-11-28T01:27:56.501Z,1.36
2022-11-28T01:34:39.610Z,1.48
2022-11-28T01:41:25.574Z,1.67
2022-11-28T01:48:08.866Z,1.73
2022-11-28T01:54:52.023Z,1.73
2022-11-28T02:01:35.079Z,1.87
2022-11-28T02:08:18.533Z,1.96
2022-11-28T02:15:04.347Z,1.98
2022-11-28T02:21:56.544Z,2.04
2022-11-28T02:28:42.257Z,2.24
2022-11-28T02:35:38.380Z,2.32
2022-11-28T02:42:40.945Z,2.35
2022-11-28T02:49:30.682Z,2.54
2022-11-28T02:56:14.217Z,2.67
2022-11-28T03:02:37.966Z,2.60
2022-11-28T03:09:18.621Z,2.51
2022-11-28T03:16:02.043Z,2.62
2022-11-28T03:22:48.195Z,2.67
2022-11-28T03:28:54.444Z,2.71
2022-11-28T03:35:40.750Z,2.62
2022-11-28T03:42:36.417Z,2.51
2022-11-28T03:49:25.636Z,2.57
2022-11-28T03:56:21.234Z,2.69
2022-11-28T04:03:22.352Z,2.66
2022-11-28T04:10:05.459Z,2.76
2022-11-28T04:16:53.947Z,2.85
2022-11-28T04:23:27.266Z,2.76
2022-11-28T04:30:10.566Z,2.72
2022-11-28T04:36:53.936Z,2.80
2022-11-28T04:43:43.925Z,2.90
2022-11-28T04:50:26.379Z,2.84
2022-11-28T04:57:09.687Z,2.81
2022-11-28T05:04:00.064Z,2.83
2022-11-28T05:10:42.706Z,2.74
2022-11-28T05:17:06.684Z,2.73
2022-11-28T05:23:49.355Z,2.80
2022-11-28T05:30:32.710Z,2.94
2022-11-28T05:37:15.277Z,3.02
2022-11-28T05:43:58.503Z,3.02
2022-11-28T05:50:28.816Z,3.00
2022-11-28T05:57:14.118Z,3.02
2022-11-28T06:03:57.900Z,2.97
2022-11-28T06:10:40.857Z,2.78
2022-11-28T06:17:24.237Z,2.68
2022-11-28T06:24:07.321Z,2.69
2022-11-28T06:30:28.689Z,2.76
2022-11-28T06:36:03.430Z,2.84
2022-11-28T06:42:26.727Z,2.92
2022-11-28T06:47:52.411Z,3.04
2022-11-28T06:54:16.480Z,3.14
2022-11-28T07:01:01.449Z,3.23
2022-11-28T07:07:53.836Z,3.29
2022-11-28T07:14:38.060Z,3.37
2022-11-28T07:21:21.657Z,3.45
2022-11-28T07:28:05.969Z,3.52
2022-11-28T07:34:50.245Z,3.52
2022-11-28T07:41:33.412Z,3.58
2022-11-28T07:48:16.369Z,3.68
2022-11-28T07:54:59.748Z,3.64
2022-11-28T08:01:33.495Z,3.79
2022-11-28T08:07:56.473Z,4.01
2022-11-28T08:14:39.323Z,4.16
2022-11-28T08:21:02.015Z,4.15
2022-11-28T08:26:30.946Z,4.25
2022-11-28T08:31:54.681Z,5.76
2022-11-28T08:37:21.933Z,7.20
2022-11-28T08:43:44.476Z,8.46
2022-11-28T08:50:07.528Z,9.67
2022-11-28T08:55:49.123Z,10.15
2022-11-28T09:02:19.021Z,9.43
2022-11-28T09:08:22.478Z,8.40
2022-11-28T09:15:07.579Z,7.54
2022-11-28T09:21:56.111Z,6.89
2022-11-28T09:27:47.713Z,6.38
2022-11-28T09:33:31.817Z,6.04
2022-11-28T09:39:17.763Z,5.81
2022-11-28T09:45:00.777Z,5.59
2022-11-28T09:50:37.830Z,5.45
2022-11-28T09:56:14.998Z,5.43
2022-11-28T10:02:16.100Z,5.44
2022-11-28T10:20:40.913Z,5.52
2022-11-28T10:27:21.277Z,5.53
2022-11-28T10:34:23.632Z,5.58
2022-11-28T10:41:11.449Z,5.70
2022-11-28T10:47:57.172Z,5.81
2022-11-28T10:54:44.389Z,5.83
2022-11-28T11:01:28.721Z,5.86
2022-11-28T11:08:12.032Z,5.98
2022-11-28T11:15:01.355Z,6.06
2022-11-28T11:21:13.721Z,6.06
2022-11-28T11:27:48.172Z,6.17
2022-11-28T11:34:02.765Z,6.20
2022-11-28T11:40:11.490Z,6.24
2022-11-28T11:46:56.971Z,6.34
2022-11-28T11:53:43.176Z,6.43
2022-11-28T12:00:35.247Z,6.49
2022-11-28T12:07:18.458Z,6.56
2022-11-28T12:14:01.598Z,6.60
2022-11-28T12:20:00.857Z,6.68
2022-11-28T12:25:45.938Z,6.62
2022-11-28T12:32:15.064Z,6.57
2022-11-28T12:38:25.931Z,6.62
2022-11-28T12:44:17.861Z,6.68
2022-11-28T12:49:56.794Z,6.77
2022-11-28T12:55:47.892Z,6.75
2022-11-28T13:01:23.878Z,6.75
2022-11-28T13:07:21.756Z,6.76
2022-11-28T13:13:00.887Z,6.77
2022-11-28T13:18:47.823Z,6.85
2022-11-28T13:24:53.032Z,6.79
2022-11-28T13:30:37.869Z,6.72
2022-11-28T13:49:13.841Z,6.67
2022-11-28T13:54:47.403Z,6.86
2022-11-28T14:00:41.798Z,7.00
2022-11-28T14:06:17.853Z,7.19
2022-11-28T14:12:11.816Z,7.27
2022-11-28T14:17:54.906Z,7.29
2022-11-28T14:24:21.154Z,7.14
2022-11-28T14:30:20.985Z,6.68
2022-11-28T14:36:46.895Z,6.28
2022-11-28T14:48:40.977Z,5.56
2022-11-28T14:55:15.063Z,5.30
2022-11-28T15:01:38.459Z,5.14
2022-11-28T15:08:19.920Z,5.07
2022-11-28T15:15:11.528Z,4.93
2022-11-28T15:21:53.922Z,4.74
2022-11-28T15:28:17.148Z,4.49
2022-11-28T15:35:00.406Z,4.23
2022-11-28T15:41:43.051Z,3.99
2022-11-28T15:48:26.203Z,3.90
2022-11-28T15:55:18.537Z,3.86
2022-11-28T16:02:04.754Z,3.67
2022-11-28T16:08:48.289Z,3.53
2022-11-28T16:15:18.362Z,3.39
2022-11-28T16:22:00.849Z,3.24
2022-11-28T16:28:20.035Z,3.24
2022-11-28T16:35:03.263Z,3.17
2022-11-28T16:41:25.541Z,2.98
2022-11-28T16:47:52.685Z,2.86
2022-11-28T16:54:37.980Z,2.83
2022-11-28T17:01:21.377Z,2.70
2022-11-28T17:08:09.387Z,2.57
2022-11-28T17:14:57.823Z,2.45
2022-11-28T17:21:42.543Z,2.42
2022-11-28T17:28:37.704Z,2.42
2022-11-28T17:35:05.198Z,2.31
2022-11-28T17:41:07.194Z,2.15
2022-11-28T17:55:18.020Z,2.16
2022-11-28T18:02:02.472Z,2.15
2022-11-28T18:07:55.431Z,1.97
2022-11-28T18:14:22.429Z,1.95
2022-11-28T18:20:35.069Z,1.93
2022-11-28T18:26:35.011Z,1.84
2022-11-28T18:33:01.300Z,1.78
2022-11-28T18:39:44.803Z,1.83
2022-11-28T18:46:29.349Z,1.76
2022-11-28T18:52:54.630Z,1.71
2022-11-28T18:58:39.554Z,1.61
2022-11-28T19:04:59.071Z,1.62
2022-11-28T19:11:07.719Z,1.64
2022-11-28T19:16:56.419Z,1.67
2022-11-28T19:23:00.331Z,1.69
2022-11-28T19:29:11.728Z,1.79
2022-11-28T19:35:37.718Z,1.82
2022-11-28T19:41:36.087Z,1.79
2022-11-28T19:48:19.789Z,1.75
2022-11-28T19:55:02.248Z,1.78
2022-11-28T20:01:47.083Z,1.80
2022-11-28T20:08:30.326Z,1.71
2022-11-28T20:14:56.263Z,1.62
2022-11-28T20:21:03.567Z,1.61
2022-11-28T20:26:36.028Z,1.59
2022-11-28T20:32:20.095Z,1.56
2022-11-28T20:38:57.900Z,1.50
2022-11-28T20:45:48.591Z,1.48
2022-11-28T20:51:55.976Z,1.46
2022-11-28T20:58:04.008Z,1.39
2022-11-28T21:04:42.066Z,1.34
2022-11-28T21:10:07.011Z,1.35
2022-11-28T21:15:33.279Z,1.38
2022-11-28T21:20:58.252Z,1.36
2022-11-28T21:26:30.098Z,1.29
2022-11-28T21:32:59.020Z,1.27
2022-11-28T21:39:47.755Z,1.27
2022-11-28T21:45:46.088Z,1.24
2022-11-28T21:51:25.130Z,1.20
2022-11-28T21:56:57.138Z,1.23
2022-11-28T22:03:06.891Z,1.23
2022-11-28T22:08:48.073Z,1.15
2022-11-28T22:14:27.932Z,1.03
2022-11-28T22:20:11.777Z,1.01
2022-11-28T22:26:35.875Z,1.06
2022-11-28T22:33:18.065Z,0.98
2022-11-28T22:39:44.025Z,0.88
2022-11-28T22:46:05.804Z,0.93
2022-11-28T22:51:54.413Z,0.89
2022-11-28T22:57:57.966Z,0.85
2022-11-28T23:04:25.098Z,0.80
2022-11-28T23:10:47.618Z,0.81
2022-11-28T23:16:53.089Z,0.79
2022-11-28T23:22:25.028Z,0.72
2022-11-28T23:28:28.695Z,0.64
2022-11-28T23:35:07.266Z,0.64
2022-11-28T23:40:30.463Z,0.61
2022-11-28T23:46:36.445Z,0.58
2022-11-28T23:52:01.115Z,0.53
2022-11-28T23:57:44.892Z,0.54
